AFR38WR LFML-LFPG
Flight info
| Callsign | AFR38WR |
|---|---|
| Flight time | 1h 9m |
| Altitude | 34000 |
| Route | N0450F340 ETREK DCT RUSIT DCT BULOL DCT LOGNI DCT MOKIP DCT ARFOZ DCT TINIL |
| Aircraft | E170/M-SDE2E3FGIJ1RWY/HB1 |
Departure
| Time | 2026-05-08 18:39 |
|---|---|
| Airport | Marseille Provence Airport (LFML) |
Arrival
| Time | 2026-05-08 19:49 |
|---|---|
| Airport | Charles de Gaulle International Airport (LFPG) |
| Time | Latitude | Longitude | Altitude | Speed | Heading |
|---|---|---|---|---|---|
| 2026-05-08 17:59 | 43.43882 | 5.22461 | 44 ft | 0 kts | 265° |
| 2026-05-08 18:29 | 43.43883 | 5.22471 | 44 ft | 2 kts | 265° |
| 2026-05-08 18:29 | 43.43884 | 5.22491 | 44 ft | 1 kts | 265° |
| 2026-05-08 18:29 | 43.43886 | 5.22504 | 45 ft | 2 kts | 248° |
| 2026-05-08 18:29 | 43.43895 | 5.22520 | 46 ft | 2 kts | 217° |
| 2026-05-08 18:30 | 43.43908 | 5.22529 | 46 ft | 2 kts | 187° |
| 2026-05-08 18:30 | 43.43921 | 5.22527 | 46 ft | 1 kts | 163° |
| 2026-05-08 18:32 | 43.43911 | 5.22531 | 46 ft | 5 kts | 163° |
| 2026-05-08 18:32 | 43.43857 | 5.22549 | 47 ft | 10 kts | 173° |
| 2026-05-08 18:32 | 43.43776 | 5.22510 | 48 ft | 14 kts | 229° |
| 2026-05-08 18:33 | 43.43739 | 5.22356 | 42 ft | 19 kts | 254° |
| 2026-05-08 18:33 | 43.43731 | 5.22200 | 36 ft | 16 kts | 241° |
| 2026-05-08 18:33 | 43.43703 | 5.22060 | 33 ft | 17 kts | 316° |
| 2026-05-08 18:33 | 43.43807 | 5.21946 | 29 ft | 20 kts | 315° |
| 2026-05-08 18:34 | 43.43914 | 5.21797 | 24 ft | 23 kts | 314° |
| 2026-05-08 18:34 | 43.43977 | 5.21643 | 20 ft | 16 kts | 244° |
| 2026-05-08 18:34 | 43.43915 | 5.21524 | 21 ft | 15 kts | 266° |
| 2026-05-08 18:34 | 43.43977 | 5.21405 | 20 ft | 16 kts | 314° |
| 2026-05-08 18:35 | 43.44062 | 5.21282 | 18 ft | 18 kts | 313° |
| 2026-05-08 18:35 | 43.44156 | 5.21145 | 16 ft | 20 kts | 314° |
| 2026-05-08 18:35 | 43.44256 | 5.20992 | 14 ft | 22 kts | 305° |
| 2026-05-08 18:35 | 43.44344 | 5.20811 | 13 ft | 17 kts | 310° |
| 2026-05-08 18:36 | 43.44384 | 5.20754 | 12 ft | 10 kts | 314° |
| 2026-05-08 18:36 | 43.44462 | 5.20643 | 11 ft | 18 kts | 313° |
| 2026-05-08 18:36 | 43.44556 | 5.20508 | 10 ft | 20 kts | 313° |
| 2026-05-08 18:36 | 43.44657 | 5.20367 | 10 ft | 21 kts | 314° |
| 2026-05-08 18:37 | 43.44761 | 5.20219 | 10 ft | 21 kts | 314° |
| 2026-05-08 18:37 | 43.44868 | 5.20066 | 10 ft | 22 kts | 314° |
| 2026-05-08 18:37 | 43.44963 | 5.19927 | 10 ft | 17 kts | 304° |
| 2026-05-08 18:37 | 43.44934 | 5.19803 | 10 ft | 16 kts | 189° |
| 2026-05-08 18:38 | 43.44839 | 5.19838 | 10 ft | 9 kts | 136° |
| 2026-05-08 18:38 | 43.44834 | 5.19845 | 10 ft | 0 kts | 134° |
| 2026-05-08 18:38 | 43.44779 | 5.19925 | 10 ft | 41 kts | 132° |
| 2026-05-08 18:39 | 43.44412 | 5.20446 | 10 ft | 107 kts | 134° |
| 2026-05-08 18:39 | 43.43780 | 5.21336 | 72 ft | 148 kts | 136° |
| 2026-05-08 18:39 | 43.43062 | 5.22346 | 529 ft | 152 kts | 134° |
| 2026-05-08 18:39 | 43.42528 | 5.23640 | 876 ft | 169 kts | 100° |
| 2026-05-08 18:40 | 43.42494 | 5.25317 | 1453 ft | 181 kts | 90° |
| 2026-05-08 18:40 | 43.42522 | 5.27128 | 1943 ft | 204 kts | 87° |
| 2026-05-08 18:40 | 43.43107 | 5.28965 | 2531 ft | 224 kts | 44° |
| 2026-05-08 18:40 | 43.44534 | 5.29796 | 3345 ft | 232 kts | 2° |
| 2026-05-08 18:41 | 43.46090 | 5.29256 | 4080 ft | 241 kts | 337° |
| 2026-05-08 18:41 | 43.47694 | 5.28375 | 4670 ft | 258 kts | 340° |
| 2026-05-08 18:41 | 43.49438 | 5.27508 | 5206 ft | 277 kts | 341° |
| 2026-05-08 18:41 | 43.51294 | 5.26633 | 5971 ft | 286 kts | 342° |
| 2026-05-08 18:42 | 43.53167 | 5.25774 | 6857 ft | 288 kts | 342° |
| 2026-05-08 18:42 | 43.55074 | 5.24911 | 7747 ft | 290 kts | 342° |
| 2026-05-08 18:42 | 43.56985 | 5.24050 | 8631 ft | 290 kts | 342° |
| 2026-05-08 18:42 | 43.58875 | 5.23201 | 9435 ft | 292 kts | 341° |
| 2026-05-08 18:43 | 43.60823 | 5.22325 | 10199 ft | 296 kts | 341° |
| 2026-05-08 18:43 | 43.62777 | 5.21446 | 10845 ft | 303 kts | 341° |
| 2026-05-08 18:43 | 43.64813 | 5.20531 | 11418 ft | 312 kts | 341° |
| 2026-05-08 18:43 | 43.66910 | 5.19594 | 11906 ft | 317 kts | 341° |
| 2026-05-08 18:44 | 43.69035 | 5.18642 | 12208 ft | 325 kts | 341° |
| 2026-05-08 18:44 | 43.71204 | 5.17661 | 12504 ft | 331 kts | 340° |
| 2026-05-08 18:44 | 43.73393 | 5.16629 | 12877 ft | 335 kts | 340° |
| 2026-05-08 18:44 | 43.75600 | 5.15586 | 13307 ft | 336 kts | 340° |
| 2026-05-08 18:45 | 43.77777 | 5.14548 | 13581 ft | 331 kts | 340° |
| 2026-05-08 18:45 | 43.79989 | 5.13495 | 13786 ft | 342 kts | 340° |
| 2026-05-08 18:45 | 43.82207 | 5.12443 | 14052 ft | 344 kts | 340° |
| 2026-05-08 18:45 | 43.84484 | 5.11362 | 14594 ft | 351 kts | 340° |
| 2026-05-08 18:46 | 43.86805 | 5.10261 | 15353 ft | 351 kts | 340° |
| 2026-05-08 18:46 | 43.89117 | 5.09358 | 16105 ft | 350 kts | 349° |
| 2026-05-08 18:46 | 43.91522 | 5.08804 | 16782 ft | 352 kts | 349° |
| 2026-05-08 18:46 | 43.93922 | 5.08256 | 17412 ft | 355 kts | 349° |
| 2026-05-08 18:47 | 43.96372 | 5.07696 | 18006 ft | 358 kts | 349° |
| 2026-05-08 18:47 | 43.98857 | 5.07128 | 18573 ft | 363 kts | 349° |
| 2026-05-08 18:47 | 44.01350 | 5.06557 | 19141 ft | 366 kts | 349° |
| 2026-05-08 18:47 | 44.03858 | 5.05982 | 19707 ft | 369 kts | 349° |
| 2026-05-08 18:48 | 44.06398 | 5.05400 | 20272 ft | 372 kts | 348° |
| 2026-05-08 18:48 | 44.08946 | 5.04814 | 20816 ft | 375 kts | 348° |
| 2026-05-08 18:48 | 44.11503 | 5.04231 | 21316 ft | 374 kts | 348° |
| 2026-05-08 18:48 | 44.14083 | 5.03639 | 21673 ft | 376 kts | 348° |
| 2026-05-08 18:49 | 44.16662 | 5.03045 | 21952 ft | 380 kts | 348° |
| 2026-05-08 18:49 | 44.19277 | 5.02442 | 22253 ft | 384 kts | 348° |
| 2026-05-08 18:49 | 44.21929 | 5.01827 | 22690 ft | 388 kts | 348° |
| 2026-05-08 18:49 | 44.24604 | 5.01208 | 23219 ft | 389 kts | 348° |
| 2026-05-08 18:50 | 44.27243 | 5.00599 | 23755 ft | 390 kts | 348° |
| 2026-05-08 18:50 | 44.29923 | 4.99978 | 24244 ft | 393 kts | 348° |
| 2026-05-08 18:50 | 44.32628 | 4.99353 | 24687 ft | 390 kts | 348° |
| 2026-05-08 18:50 | 44.35301 | 4.98733 | 24842 ft | 389 kts | 348° |
| 2026-05-08 18:51 | 44.37983 | 4.98111 | 24837 ft | 392 kts | 348° |
| 2026-05-08 18:51 | 44.40660 | 4.97489 | 24866 ft | 400 kts | 348° |
| 2026-05-08 18:51 | 44.43437 | 4.96845 | 25112 ft | 403 kts | 348° |
| 2026-05-08 18:51 | 44.46182 | 4.96206 | 25477 ft | 406 kts | 348° |
| 2026-05-08 18:52 | 44.48978 | 4.95556 | 25977 ft | 407 kts | 348° |
| 2026-05-08 18:52 | 44.51745 | 4.94911 | 26486 ft | 407 kts | 349° |
| 2026-05-08 18:52 | 44.54550 | 4.94257 | 26953 ft | 408 kts | 348° |
| 2026-05-08 18:52 | 44.57321 | 4.93610 | 27358 ft | 411 kts | 348° |
| 2026-05-08 18:53 | 44.60187 | 4.92940 | 27745 ft | 414 kts | 348° |
| 2026-05-08 18:53 | 44.63013 | 4.92279 | 28144 ft | 416 kts | 348° |
| 2026-05-08 18:53 | 44.65852 | 4.91614 | 28551 ft | 418 kts | 349° |
| 2026-05-08 18:53 | 44.68753 | 4.90934 | 28982 ft | 419 kts | 349° |
| 2026-05-08 18:54 | 44.71672 | 4.90219 | 29392 ft | 420 kts | 346° |
| 2026-05-08 18:54 | 44.74475 | 4.88988 | 29752 ft | 420 kts | 336° |
| 2026-05-08 18:54 | 44.77169 | 4.87460 | 30092 ft | 423 kts | 336° |
| 2026-05-08 18:54 | 44.79891 | 4.85923 | 30432 ft | 425 kts | 336° |
| 2026-05-08 18:55 | 44.85422 | 4.82804 | 31040 ft | 432 kts | 336° |
| 2026-05-08 18:55 | 44.88221 | 4.81225 | 31336 ft | 435 kts | 336° |
| 2026-05-08 18:55 | 44.91038 | 4.79633 | 31645 ft | 437 kts | 336° |
| 2026-05-08 18:56 | 44.93830 | 4.78053 | 31957 ft | 439 kts | 336° |
| 2026-05-08 18:56 | 44.96692 | 4.76433 | 32329 ft | 440 kts | 336° |
| 2026-05-08 18:56 | 44.99512 | 4.74835 | 32709 ft | 440 kts | 336° |
| 2026-05-08 18:56 | 45.02341 | 4.73230 | 33131 ft | 439 kts | 336° |
| 2026-05-08 18:57 | 45.05180 | 4.71618 | 33551 ft | 438 kts | 335° |
| 2026-05-08 18:57 | 45.07055 | 4.70552 | 33842 ft | 437 kts | 335° |
| 2026-05-08 18:57 | 45.10759 | 4.68444 | 34012 ft | 434 kts | 335° |
| 2026-05-08 18:58 | 45.16584 | 4.65844 | 34045 ft | 453 kts | 349° |
| 2026-05-08 18:58 | 45.19785 | 4.65511 | 34049 ft | 464 kts | 358° |
| 2026-05-08 18:58 | 45.23004 | 4.65808 | 34040 ft | 473 kts | 7° |
| 2026-05-08 18:59 | 45.29276 | 4.68624 | 34030 ft | 478 kts | 26° |
| 2026-05-08 18:59 | 45.35348 | 4.72458 | 34017 ft | 476 kts | 19° |
| 2026-05-08 19:00 | 45.41507 | 4.75732 | 34006 ft | 475 kts | 18° |
| 2026-05-08 19:00 | 45.47709 | 4.78988 | 34005 ft | 476 kts | 18° |
| 2026-05-08 19:01 | 45.53896 | 4.82241 | 34001 ft | 475 kts | 18° |
| 2026-05-08 19:01 | 45.60021 | 4.85469 | 34002 ft | 472 kts | 18° |
| 2026-05-08 19:02 | 45.66163 | 4.88714 | 34002 ft | 471 kts | 18° |
| 2026-05-08 19:02 | 45.72285 | 4.91956 | 34005 ft | 471 kts | 18° |
| 2026-05-08 19:03 | 45.78412 | 4.95210 | 34009 ft | 470 kts | 18° |
| 2026-05-08 19:03 | 45.84541 | 4.98472 | 34010 ft | 468 kts | 18° |
| 2026-05-08 19:04 | 45.90611 | 5.01711 | 34005 ft | 467 kts | 17° |
| 2026-05-08 19:04 | 45.96682 | 5.04957 | 34002 ft | 468 kts | 17° |
| 2026-05-08 19:05 | 46.02775 | 5.08130 | 33993 ft | 465 kts | 12° |
| 2026-05-08 19:05 | 46.09097 | 5.09263 | 34010 ft | 454 kts | 355° |
| 2026-05-08 19:06 | 46.15379 | 5.09254 | 34001 ft | 454 kts | 356° |
| 2026-05-08 19:06 | 46.21529 | 5.07815 | 33997 ft | 445 kts | 337° |
| 2026-05-08 19:07 | 46.27232 | 5.04536 | 33997 ft | 445 kts | 337° |
| 2026-05-08 19:07 | 46.33013 | 5.01435 | 33986 ft | 444 kts | 335° |
| 2026-05-08 19:08 | 46.38758 | 4.98251 | 33982 ft | 443 kts | 335° |
| 2026-05-08 19:08 | 46.44495 | 4.95056 | 33983 ft | 443 kts | 335° |
| 2026-05-08 19:09 | 46.50205 | 4.91869 | 33984 ft | 439 kts | 335° |
| 2026-05-08 19:09 | 46.55911 | 4.88676 | 33986 ft | 440 kts | 335° |
| 2026-05-08 19:10 | 46.61603 | 4.85485 | 33987 ft | 440 kts | 335° |
| 2026-05-08 19:10 | 46.67297 | 4.82284 | 33985 ft | 440 kts | 335° |
| 2026-05-08 19:11 | 46.72993 | 4.79076 | 33982 ft | 439 kts | 335° |
| 2026-05-08 19:11 | 46.78657 | 4.75878 | 33980 ft | 437 kts | 335° |
| 2026-05-08 19:12 | 46.84323 | 4.72672 | 33981 ft | 436 kts | 335° |
| 2026-05-08 19:12 | 46.89966 | 4.69472 | 33983 ft | 437 kts | 335° |
| 2026-05-08 19:13 | 46.95589 | 4.66275 | 33983 ft | 436 kts | 335° |
| 2026-05-08 19:13 | 47.01218 | 4.63069 | 33983 ft | 435 kts | 335° |
| 2026-05-08 19:14 | 47.06872 | 4.59840 | 33984 ft | 436 kts | 335° |
| 2026-05-08 19:14 | 47.12505 | 4.56616 | 33991 ft | 435 kts | 335° |
| 2026-05-08 19:15 | 47.18148 | 4.53381 | 33991 ft | 434 kts | 335° |
| 2026-05-08 19:15 | 47.23722 | 4.50176 | 34001 ft | 432 kts | 335° |
| 2026-05-08 19:16 | 47.29326 | 4.46946 | 34007 ft | 432 kts | 335° |
| 2026-05-08 19:16 | 47.34926 | 4.43713 | 34012 ft | 431 kts | 335° |
| 2026-05-08 19:17 | 47.40467 | 4.40505 | 34007 ft | 428 kts | 335° |
| 2026-05-08 19:17 | 47.45988 | 4.37301 | 34013 ft | 426 kts | 335° |
| 2026-05-08 19:18 | 47.51464 | 4.34118 | 34000 ft | 418 kts | 334° |
| 2026-05-08 19:18 | 47.54135 | 4.32562 | 33697 ft | 420 kts | 335° |
| 2026-05-08 19:18 | 47.56865 | 4.30969 | 33189 ft | 424 kts | 335° |
| 2026-05-08 19:18 | 47.59594 | 4.29377 | 32681 ft | 425 kts | 335° |
| 2026-05-08 19:19 | 47.62351 | 4.27766 | 32100 ft | 422 kts | 335° |
| 2026-05-08 19:19 | 47.65044 | 4.26191 | 31254 ft | 422 kts | 335° |
| 2026-05-08 19:19 | 47.67751 | 4.24605 | 30769 ft | 421 kts | 335° |
| 2026-05-08 19:19 | 47.70503 | 4.22990 | 30274 ft | 433 kts | 335° |
| 2026-05-08 19:20 | 47.73311 | 4.21343 | 29784 ft | 433 kts | 335° |
| 2026-05-08 19:20 | 47.75144 | 4.20266 | 29470 ft | 432 kts | 335° |
| 2026-05-08 19:20 | 47.78842 | 4.18091 | 28835 ft | 429 kts | 336° |
| 2026-05-08 19:20 | 47.81610 | 4.16461 | 28364 ft | 423 kts | 335° |
| 2026-05-08 19:21 | 47.84310 | 4.14868 | 27896 ft | 419 kts | 336° |
| 2026-05-08 19:21 | 47.87035 | 4.13259 | 27433 ft | 418 kts | 335° |
| 2026-05-08 19:21 | 47.89680 | 4.11696 | 26977 ft | 414 kts | 335° |
| 2026-05-08 19:21 | 47.92350 | 4.10116 | 26528 ft | 412 kts | 335° |
| 2026-05-08 19:22 | 47.94998 | 4.08547 | 26067 ft | 408 kts | 335° |
| 2026-05-08 19:22 | 47.97622 | 4.06991 | 25619 ft | 405 kts | 336° |
| 2026-05-08 19:22 | 48.00226 | 4.05445 | 25176 ft | 403 kts | 336° |
| 2026-05-08 19:22 | 48.02828 | 4.03899 | 24718 ft | 401 kts | 335° |
| 2026-05-08 19:23 | 48.05292 | 4.02140 | 24661 ft | 398 kts | 329° |
| 2026-05-08 19:23 | 48.07726 | 4.00137 | 24630 ft | 399 kts | 329° |
| 2026-05-08 19:23 | 48.10156 | 3.98157 | 24223 ft | 400 kts | 329° |
| 2026-05-08 19:23 | 48.12603 | 3.96169 | 23801 ft | 397 kts | 330° |
| 2026-05-08 19:24 | 48.15016 | 3.94209 | 23374 ft | 393 kts | 330° |
| 2026-05-08 19:24 | 48.17397 | 3.92275 | 22938 ft | 393 kts | 329° |
| 2026-05-08 19:24 | 48.19792 | 3.90326 | 22514 ft | 390 kts | 329° |
| 2026-05-08 19:24 | 48.22158 | 3.88398 | 22090 ft | 390 kts | 329° |
| 2026-05-08 19:25 | 48.24554 | 3.86444 | 21653 ft | 391 kts | 330° |
| 2026-05-08 19:25 | 48.26908 | 3.84524 | 21219 ft | 389 kts | 330° |
| 2026-05-08 19:25 | 48.29309 | 3.82562 | 20796 ft | 389 kts | 329° |
| 2026-05-08 19:25 | 48.31659 | 3.80640 | 20365 ft | 389 kts | 329° |
| 2026-05-08 19:26 | 48.34055 | 3.78678 | 19931 ft | 389 kts | 329° |
| 2026-05-08 19:26 | 48.36390 | 3.76764 | 19511 ft | 387 kts | 329° |
| 2026-05-08 19:26 | 48.38761 | 3.74818 | 19081 ft | 387 kts | 329° |
| 2026-05-08 19:26 | 48.41110 | 3.72888 | 18658 ft | 386 kts | 329° |
| 2026-05-08 19:27 | 48.43450 | 3.70964 | 18219 ft | 385 kts | 329° |
| 2026-05-08 19:27 | 48.45808 | 3.69023 | 17776 ft | 383 kts | 329° |
| 2026-05-08 19:27 | 48.48135 | 3.67106 | 17352 ft | 381 kts | 329° |
| 2026-05-08 19:27 | 48.50442 | 3.65203 | 16933 ft | 379 kts | 329° |
| 2026-05-08 19:28 | 48.52745 | 3.63301 | 16515 ft | 377 kts | 329° |
| 2026-05-08 19:28 | 48.55032 | 3.61410 | 16103 ft | 375 kts | 329° |
| 2026-05-08 19:28 | 48.57291 | 3.59540 | 15695 ft | 374 kts | 329° |
| 2026-05-08 19:28 | 48.59551 | 3.57666 | 15286 ft | 371 kts | 329° |
| 2026-05-08 19:29 | 48.61507 | 3.55194 | 14947 ft | 363 kts | 306° |
| 2026-05-08 19:29 | 48.62927 | 3.52090 | 15003 ft | 363 kts | 302° |
| 2026-05-08 19:29 | 48.64321 | 3.48885 | 15006 ft | 365 kts | 302° |
| 2026-05-08 19:29 | 48.65689 | 3.45705 | 15003 ft | 364 kts | 302° |
| 2026-05-08 19:30 | 48.67068 | 3.42483 | 15003 ft | 366 kts | 302° |
| 2026-05-08 19:30 | 48.68443 | 3.39260 | 15003 ft | 366 kts | 302° |
| 2026-05-08 19:30 | 48.69817 | 3.36034 | 14999 ft | 365 kts | 302° |
| 2026-05-08 19:30 | 48.71197 | 3.32791 | 15001 ft | 365 kts | 301° |
| 2026-05-08 19:31 | 48.72566 | 3.29568 | 14990 ft | 366 kts | 301° |
| 2026-05-08 19:31 | 48.73935 | 3.26342 | 14715 ft | 366 kts | 301° |
| 2026-05-08 19:31 | 48.75297 | 3.23128 | 14516 ft | 365 kts | 301° |
| 2026-05-08 19:31 | 48.76666 | 3.19895 | 14314 ft | 364 kts | 301° |
| 2026-05-08 19:32 | 48.78028 | 3.16675 | 14114 ft | 363 kts | 301° |
| 2026-05-08 19:32 | 48.79389 | 3.13452 | 13914 ft | 361 kts | 301° |
| 2026-05-08 19:32 | 48.80729 | 3.10275 | 13715 ft | 360 kts | 301° |
| 2026-05-08 19:32 | 48.82078 | 3.07075 | 13512 ft | 358 kts | 301° |
| 2026-05-08 19:33 | 48.83409 | 3.03910 | 13312 ft | 357 kts | 301° |
| 2026-05-08 19:33 | 48.84815 | 3.00837 | 13106 ft | 357 kts | 309° |
| 2026-05-08 19:33 | 48.86497 | 2.98029 | 13051 ft | 357 kts | 311° |
| 2026-05-08 19:33 | 48.88150 | 2.95289 | 13051 ft | 358 kts | 311° |
| 2026-05-08 19:34 | 48.89830 | 2.92502 | 13053 ft | 358 kts | 311° |
| 2026-05-08 19:34 | 48.91504 | 2.89720 | 13035 ft | 357 kts | 311° |
| 2026-05-08 19:34 | 48.92991 | 2.86711 | 13037 ft | 355 kts | 294° |
| 2026-05-08 19:34 | 48.93528 | 2.83105 | 13056 ft | 352 kts | 270° |
| 2026-05-08 19:35 | 48.93407 | 2.79403 | 13067 ft | 354 kts | 265° |
| 2026-05-08 19:35 | 48.93235 | 2.75797 | 12941 ft | 333 kts | 265° |
| 2026-05-08 19:35 | 48.93059 | 2.72362 | 12584 ft | 315 kts | 265° |
| 2026-05-08 19:35 | 48.92890 | 2.69132 | 12270 ft | 300 kts | 265° |
| 2026-05-08 19:36 | 48.92728 | 2.66073 | 11978 ft | 289 kts | 265° |
| 2026-05-08 19:36 | 48.92564 | 2.63019 | 11696 ft | 286 kts | 265° |
| 2026-05-08 19:36 | 48.92401 | 2.60006 | 11431 ft | 288 kts | 265° |
| 2026-05-08 19:36 | 48.92238 | 2.56986 | 11164 ft | 287 kts | 265° |
| 2026-05-08 19:37 | 48.92072 | 2.53938 | 10890 ft | 287 kts | 265° |
| 2026-05-08 19:37 | 48.91910 | 2.50969 | 10619 ft | 285 kts | 265° |
| 2026-05-08 19:37 | 48.91745 | 2.47969 | 10345 ft | 284 kts | 265° |
| 2026-05-08 19:37 | 48.91580 | 2.44977 | 10061 ft | 283 kts | 265° |
| 2026-05-08 19:38 | 48.91415 | 2.42019 | 9689 ft | 283 kts | 265° |
| 2026-05-08 19:38 | 48.91249 | 2.39049 | 9317 ft | 283 kts | 266° |
| 2026-05-08 19:38 | 48.91082 | 2.36053 | 8945 ft | 285 kts | 266° |
| 2026-05-08 19:38 | 48.90915 | 2.33083 | 8580 ft | 286 kts | 265° |
| 2026-05-08 19:39 | 48.90743 | 2.30050 | 8208 ft | 286 kts | 265° |
| 2026-05-08 19:39 | 48.90574 | 2.27066 | 7882 ft | 283 kts | 265° |
| 2026-05-08 19:39 | 48.90405 | 2.24113 | 7590 ft | 284 kts | 265° |
| 2026-05-08 19:39 | 48.90234 | 2.21121 | 7180 ft | 284 kts | 265° |
| 2026-05-08 19:40 | 48.90062 | 2.18150 | 6773 ft | 282 kts | 265° |
| 2026-05-08 19:40 | 48.89894 | 2.15237 | 6369 ft | 279 kts | 264° |
| 2026-05-08 19:40 | 48.89774 | 2.12283 | 5950 ft | 278 kts | 276° |
| 2026-05-08 19:40 | 48.90454 | 2.09653 | 5568 ft | 270 kts | 311° |
| 2026-05-08 19:41 | 48.91951 | 2.08123 | 5199 ft | 259 kts | 347° |
| 2026-05-08 19:41 | 48.93704 | 2.07913 | 4828 ft | 249 kts | 2° |
| 2026-05-08 19:41 | 48.95390 | 2.08135 | 4442 ft | 241 kts | 22° |
| 2026-05-08 19:41 | 48.96649 | 2.09673 | 4078 ft | 231 kts | 60° |
| 2026-05-08 19:42 | 48.96992 | 2.11953 | 4018 ft | 221 kts | 88° |
| 2026-05-08 19:42 | 48.97034 | 2.14272 | 3994 ft | 222 kts | 86° |
| 2026-05-08 19:42 | 48.97120 | 2.16658 | 3989 ft | 225 kts | 85° |
| 2026-05-08 19:42 | 48.97228 | 2.19016 | 3985 ft | 226 kts | 85° |
| 2026-05-08 19:43 | 48.97347 | 2.21344 | 3971 ft | 215 kts | 84° |
| 2026-05-08 19:43 | 48.97465 | 2.23528 | 3954 ft | 197 kts | 84° |
| 2026-05-08 19:43 | 48.97576 | 2.25527 | 3951 ft | 183 kts | 84° |
| 2026-05-08 19:43 | 48.97683 | 2.27441 | 3977 ft | 182 kts | 84° |
| 2026-05-08 19:44 | 48.97790 | 2.29377 | 3792 ft | 186 kts | 84° |
| 2026-05-08 19:44 | 48.97897 | 2.31324 | 3569 ft | 185 kts | 84° |
| 2026-05-08 19:44 | 48.98008 | 2.33282 | 3330 ft | 184 kts | 84° |
| 2026-05-08 19:44 | 48.98117 | 2.35192 | 3122 ft | 179 kts | 84° |
| 2026-05-08 19:45 | 48.98220 | 2.37039 | 2914 ft | 177 kts | 84° |
| 2026-05-08 19:45 | 48.98320 | 2.38905 | 2667 ft | 176 kts | 84° |
| 2026-05-08 19:45 | 48.98426 | 2.40756 | 2465 ft | 174 kts | 84° |
| 2026-05-08 19:45 | 48.98517 | 2.42465 | 2176 ft | 154 kts | 83° |
| 2026-05-08 19:46 | 48.98604 | 2.43984 | 1937 ft | 136 kts | 84° |
| 2026-05-08 19:46 | 48.98680 | 2.45383 | 1752 ft | 130 kts | 83° |
| 2026-05-08 19:46 | 48.98836 | 2.48166 | 1426 ft | 133 kts | 80° |
| 2026-05-08 19:47 | 48.98925 | 2.49576 | 1269 ft | 136 kts | 82° |
| 2026-05-08 19:47 | 48.99006 | 2.51009 | 1103 ft | 134 kts | 84° |
| 2026-05-08 19:47 | 48.99093 | 2.52470 | 909 ft | 138 kts | 80° |
| 2026-05-08 19:47 | 48.99165 | 2.53933 | 703 ft | 140 kts | 84° |
| 2026-05-08 19:48 | 48.99236 | 2.55390 | 529 ft | 138 kts | 81° |
| 2026-05-08 19:48 | 48.99310 | 2.56839 | 362 ft | 135 kts | 84° |
| 2026-05-08 19:48 | 48.99381 | 2.58166 | 320 ft | 108 kts | 85° |
| 2026-05-08 19:48 | 48.99428 | 2.59041 | 319 ft | 51 kts | 84° |
| 2026-05-08 19:49 | 48.99490 | 2.59329 | 318 ft | 23 kts | 65° |
| 2026-05-08 19:49 | 48.99558 | 2.59556 | 320 ft | 23 kts | 65° |
| 2026-05-08 19:49 | 48.99660 | 2.59693 | 318 ft | 14 kts | 0° |
| 2026-05-08 19:49 | 48.99760 | 2.59680 | 320 ft | 17 kts | 354° |
| 2026-05-08 19:50 | 48.99908 | 2.59666 | 322 ft | 22 kts | 357° |
| 2026-05-08 19:50 | 48.99963 | 2.59658 | 322 ft | 2 kts | 352° |
| 2026-05-08 19:50 | 48.99987 | 2.59653 | 322 ft | 5 kts | 353° |
| 2026-05-08 19:50 | 49.00019 | 2.59647 | 322 ft | 0 kts | 353° |
| 2026-05-08 19:51 | 49.00021 | 2.59647 | 322 ft | 1 kts | 354° |
| 2026-05-08 19:51 | 49.00060 | 2.59643 | 323 ft | 9 kts | 356° |
| 2026-05-08 19:51 | 49.00147 | 2.59633 | 325 ft | 15 kts | 355° |
| 2026-05-08 19:51 | 49.00250 | 2.59623 | 325 ft | 7 kts | 357° |
| 2026-05-08 19:52 | 49.00303 | 2.59618 | 325 ft | 8 kts | 354° |
| 2026-05-08 19:52 | 49.00358 | 2.59617 | 326 ft | 6 kts | 38° |
| 2026-05-08 19:52 | 49.00370 | 2.59655 | 326 ft | 0 kts | 81° |
| 2026-05-08 19:52 | 49.00370 | 2.59671 | 326 ft | 2 kts | 98° |
| 2026-05-08 19:53 | 49.00338 | 2.59710 | 325 ft | 9 kts | 156° |
| 2026-05-08 19:53 | 49.00319 | 2.59762 | 325 ft | 4 kts | 76° |
| 2026-05-08 19:53 | 49.00322 | 2.59833 | 325 ft | 8 kts | 85° |
| 2026-05-08 19:53 | 49.00327 | 2.59919 | 325 ft | 5 kts | 84° |
| 2026-05-08 19:54 | 49.00332 | 2.60000 | 325 ft | 11 kts | 84° |
| 2026-05-08 19:54 | 49.00339 | 2.60116 | 325 ft | 9 kts | 84° |
| 2026-05-08 19:54 | 49.00359 | 2.60204 | 325 ft | 9 kts | 8° |
| 2026-05-08 19:54 | 49.00426 | 2.60195 | 325 ft | 5 kts | 354° |
| 2026-05-08 19:55 | 49.00444 | 2.60167 | 325 ft | 4 kts | 273° |
| 2026-05-08 19:55 | 49.00442 | 2.60124 | 326 ft | 1 kts | 264° |
| 2026-05-08 19:55 | 49.00441 | 2.60117 | 326 ft | 0 kts | 264° |
| 2026-05-08 19:55 | 49.00441 | 2.60113 | 326 ft | 0 kts | 264° |
| 2026-05-08 19:56 | 49.00441 | 2.60112 | 326 ft | 0 kts | 264° |